Portada
METAR-TAF:

METAR-TAF

Aeropuertos :

Aeropuerto de Chitá-Kadala

Chitá, Rusia

latitud: 52-05N, longitud: 113-29E, altitud: 685 m

Observación

El informe se hizo hace 43 minutos, a las 13:30 UTC
Viento 6 kt del oeste-noroeste
Temperatura -2°C
Humedad 46%
Presión 1018 hPa
Visibilidad 10 km o más

METAR: UIAA 241330Z 30003MPS 9999 NSC M02/M12 Q1018 R29/70D NOSIG RMK QFE705/0940

Hora: 23:13 (14:13 UTC)

Pronóstico

El informe se hizo hace 3 horas y 13 minutos, a las 11:00 UTC
Pronóstico válido del 24 a las 12 UTC al 25 a las 12 UTC
Viento 6 kt del sur-sureste
Visibilidad 10 km o más

TAF: UIAA 241100Z 2412/2512 16003MPS 9999 NSC

Observaciones y pronósticos meteorológicos de más de 4000 aeropuertos (mensajes METAR y TAF).

Los puntos amarillos y rojos representan las estaciones disponibles.

Ponga el ratón en el punto deseado para ver el nombre de la estación.

Haga clic para ver las observaciones y los pronósticos meteorológicos.

Para cambiar el mapa : haga clic en los botones verdes con una cruz de color negro para hacer un zoom, en el botón verde con un guión para alejar o en las flechas verdes para mapas adyacentes.


METAR-TAF: